sensor_id;sensor_type;location;lat;lon;timestamp;temperature;humidity
39847;DHT22;25517;52.422;10.782;2022-11-04T00:01:45;10.70;99.90
39847;DHT22;25517;52.422;10.782;2022-11-04T00:04:12;10.70;99.90
39847;DHT22;25517;52.422;10.782;2022-11-04T00:06:38;10.70;99.90
39847;DHT22;25517;52.422;10.782;2022-11-04T00:09:06;10.70;99.90
39847;DHT22;25517;52.422;10.782;2022-11-04T00:11:32;10.70;99.90
39847;DHT22;25517;52.422;10.782;2022-11-04T00:14:16;10.70;99.90
39847;DHT22;25517;52.422;10.782;2022-11-04T00:16:42;10.70;99.90
39847;DHT22;25517;52.422;10.782;2022-11-04T00:19:26;10.60;99.90
39847;DHT22;25517;52.422;10.782;2022-11-04T00:21:53;10.60;99.90
39847;DHT22;25517;52.422;10.782;2022-11-04T00:24:37;10.60;99.90
39847;DHT22;25517;52.422;10.782;2022-11-04T00:27:22;10.60;99.90
39847;DHT22;25517;52.422;10.782;2022-11-04T00:30:08;10.60;99.90
39847;DHT22;25517;52.422;10.782;2022-11-04T00:32:34;10.60;99.90
39847;DHT22;25517;52.422;10.782;2022-11-04T00:35:19;10.60;99.90
39847;DHT22;25517;52.422;10.782;2022-11-04T00:37:45;10.60;99.90
39847;DHT22;25517;52.422;10.782;2022-11-04T00:40:13;10.60;99.90
39847;DHT22;25517;52.422;10.782;2022-11-04T00:42:39;10.60;99.90
39847;DHT22;25517;52.422;10.782;2022-11-04T00:45:05;10.60;99.90
39847;DHT22;25517;52.422;10.782;2022-11-04T00:47:31;10.50;99.90
39847;DHT22;25517;52.422;10.782;2022-11-04T00:49:57;10.50;99.90
39847;DHT22;25517;52.422;10.782;2022-11-04T00:52:22;10.50;99.90
39847;DHT22;25517;52.422;10.782;2022-11-04T00:54:48;10.60;99.90
39847;DHT22;25517;52.422;10.782;2022-11-04T00:57:14;10.50;99.90
39847;DHT22;25517;52.422;10.782;2022-11-04T00:59:40;10.50;99.90
39847;DHT22;25517;52.422;10.782;2022-11-04T01:02:07;10.60;99.90
39847;DHT22;25517;52.422;10.782;2022-11-04T01:04:33;10.50;99.90
39847;DHT22;25517;52.422;10.782;2022-11-04T01:06:59;10.60;99.90
39847;DHT22;25517;52.422;10.782;2022-11-04T01:09:24;10.60;99.90
39847;DHT22;25517;52.422;10.782;2022-11-04T01:11:50;10.60;99.90
39847;DHT22;25517;52.422;10.782;2022-11-04T01:14:15;10.60;99.90
39847;DHT22;25517;52.422;10.782;2022-11-04T01:16:41;10.60;99.90
39847;DHT22;25517;52.422;10.782;2022-11-04T01:19:08;10.70;99.90
39847;DHT22;25517;52.422;10.782;2022-11-04T01:21:34;10.60;99.90
39847;DHT22;25517;52.422;10.782;2022-11-04T01:23:59;10.60;99.90
39847;DHT22;25517;52.422;10.782;2022-11-04T01:26:26;10.60;99.90
39847;DHT22;25517;52.422;10.782;2022-11-04T01:28:53;10.70;99.90
39847;DHT22;25517;52.422;10.782;2022-11-04T01:31:25;10.60;99.90
39847;DHT22;25517;52.422;10.782;2022-11-04T01:33:53;10.70;99.90
39847;DHT22;25517;52.422;10.782;2022-11-04T01:36:19;10.60;99.90
39847;DHT22;25517;52.422;10.782;2022-11-04T01:38:45;10.70;99.90
39847;DHT22;25517;52.422;10.782;2022-11-04T01:41:17;10.70;99.90
39847;DHT22;25517;52.422;10.782;2022-11-04T01:43:52;10.70;99.90
39847;DHT22;25517;52.422;10.782;2022-11-04T01:48:57;10.60;99.90
39847;DHT22;25517;52.422;10.782;2022-11-04T01:51:24;10.60;99.90
39847;DHT22;25517;52.422;10.782;2022-11-04T01:53:51;10.60;99.90
39847;DHT22;25517;52.422;10.782;2022-11-04T01:56:19;10.70;99.90
39847;DHT22;25517;52.422;10.782;2022-11-04T01:58:48;10.70;99.90
39847;DHT22;25517;52.422;10.782;2022-11-04T02:01:15;10.70;99.90
39847;DHT22;25517;52.422;10.782;2022-11-04T02:03:53;10.70;99.90
39847;DHT22;25517;52.422;10.782;2022-11-04T02:06:20;10.70;99.90
39847;DHT22;25517;52.422;10.782;2022-11-04T02:08:46;10.70;99.90
39847;DHT22;25517;52.422;10.782;2022-11-04T02:11:12;10.70;99.90
39847;DHT22;25517;52.422;10.782;2022-11-04T02:13:57;10.60;99.90
39847;DHT22;25517;52.422;10.782;2022-11-04T02:16:43;10.60;99.90
39847;DHT22;25517;52.422;10.782;2022-11-04T02:22:42;10.40;99.90
39847;DHT22;25517;52.422;10.782;2022-11-04T02:25:48;10.40;99.90
39847;DHT22;25517;52.422;10.782;2022-11-04T02:33:51;10.30;99.90
39847;DHT22;25517;52.422;10.782;2022-11-04T02:42:25;10.30;99.90
39847;DHT22;25517;52.422;10.782;2022-11-04T02:45:09;10.30;99.90
39847;DHT22;25517;52.422;10.782;2022-11-04T02:47:40;10.30;99.90
39847;DHT22;25517;52.422;10.782;2022-11-04T02:50:10;10.30;99.90
39847;DHT22;25517;52.422;10.782;2022-11-04T02:55:17;10.20;99.90
39847;DHT22;25517;52.422;10.782;2022-11-04T02:57:46;10.20;99.90
39847;DHT22;25517;52.422;10.782;2022-11-04T03:00:13;10.20;99.90
39847;DHT22;25517;52.422;10.782;2022-11-04T03:05:09;10.00;99.90
39847;DHT22;25517;52.422;10.782;2022-11-04T03:07:39;10.00;99.90
39847;DHT22;25517;52.422;10.782;2022-11-04T03:10:21;9.90;99.90
39847;DHT22;25517;52.422;10.782;2022-11-04T03:12:56;9.90;99.90
39847;DHT22;25517;52.422;10.782;2022-11-04T03:15:26;10.00;99.90
39847;DHT22;25517;52.422;10.782;2022-11-04T03:18:15;10.00;99.90
39847;DHT22;25517;52.422;10.782;2022-11-04T03:20:44;10.00;99.90
39847;DHT22;25517;52.422;10.782;2022-11-04T03:23:10;10.00;99.90
39847;DHT22;25517;52.422;10.782;2022-11-04T03:25:45;9.90;99.90
39847;DHT22;25517;52.422;10.782;2022-11-04T03:28:21;9.90;99.90
39847;DHT22;25517;52.422;10.782;2022-11-04T03:30:51;9.90;99.90
39847;DHT22;25517;52.422;10.782;2022-11-04T03:35:47;9.90;99.90
39847;DHT22;25517;52.422;10.782;2022-11-04T03:38:13;10.00;99.90
39847;DHT22;25517;52.422;10.782;2022-11-04T03:40:38;10.00;99.90
39847;DHT22;25517;52.422;10.782;2022-11-04T03:43:22;10.00;99.90
39847;DHT22;25517;52.422;10.782;2022-11-04T03:45:49;10.00;99.90
39847;DHT22;25517;52.422;10.782;2022-11-04T03:48:15;10.00;99.90
39847;DHT22;25517;52.422;10.782;2022-11-04T03:50:42;10.00;99.90
39847;DHT22;25517;52.422;10.782;2022-11-04T03:53:10;10.00;99.90
39847;DHT22;25517;52.422;10.782;2022-11-04T03:58:47;9.90;99.90
39847;DHT22;25517;52.422;10.782;2022-11-04T04:04:31;9.90;99.90
39847;DHT22;25517;52.422;10.782;2022-11-04T04:07:06;9.90;99.90
39847;DHT22;25517;52.422;10.782;2022-11-04T04:12:19;10.00;99.90
39847;DHT22;25517;52.422;10.782;2022-11-04T04:14:51;10.00;99.90
39847;DHT22;25517;52.422;10.782;2022-11-04T04:17:36;10.00;99.90
39847;DHT22;25517;52.422;10.782;2022-11-04T04:20:06;10.00;99.90
39847;DHT22;25517;52.422;10.782;2022-11-04T04:22:53;10.00;99.90
39847;DHT22;25517;52.422;10.782;2022-11-04T04:25:21;10.00;99.90
39847;DHT22;25517;52.422;10.782;2022-11-04T04:28:08;10.00;99.90
39847;DHT22;25517;52.422;10.782;2022-11-04T04:30:35;10.10;99.90
39847;DHT22;25517;52.422;10.782;2022-11-04T04:33:10;10.10;99.90
39847;DHT22;25517;52.422;10.782;2022-11-04T04:36:02;10.20;99.90
39847;DHT22;25517;52.422;10.782;2022-11-04T04:38:30;10.30;99.90
39847;DHT22;25517;52.422;10.782;2022-11-04T04:41:20;10.30;99.90
39847;DHT22;25517;52.422;10.782;2022-11-04T04:44:26;10.30;99.90
39847;DHT22;25517;52.422;10.782;2022-11-04T04:47:15;10.30;99.90
39847;DHT22;25517;52.422;10.782;2022-11-04T04:49:55;10.30;99.90
39847;DHT22;25517;52.422;10.782;2022-11-04T04:52:22;10.30;99.90
39847;DHT22;25517;52.422;10.782;2022-11-04T04:54:48;10.40;99.90
39847;DHT22;25517;52.422;10.782;2022-11-04T04:57:14;10.30;99.90
39847;DHT22;25517;52.422;10.782;2022-11-04T04:59:39;10.30;99.90
39847;DHT22;25517;52.422;10.782;2022-11-04T05:02:05;10.30;99.90
39847;DHT22;25517;52.422;10.782;2022-11-04T05:04:30;10.30;99.90
39847;DHT22;25517;52.422;10.782;2022-11-04T05:06:55;10.30;99.90
39847;DHT22;25517;52.422;10.782;2022-11-04T05:09:21;10.40;99.90
39847;DHT22;25517;52.422;10.782;2022-11-04T05:11:47;10.40;99.90
39847;DHT22;25517;52.422;10.782;2022-11-04T05:14:12;10.30;99.90
39847;DHT22;25517;52.422;10.782;2022-11-04T05:16:38;10.30;99.90
39847;DHT22;25517;52.422;10.782;2022-11-04T05:19:03;10.40;99.90
39847;DHT22;25517;52.422;10.782;2022-11-04T05:21:29;10.30;99.90
39847;DHT22;25517;52.422;10.782;2022-11-04T05:23:54;10.30;99.90
39847;DHT22;25517;52.422;10.782;2022-11-04T05:26:20;10.30;99.90
39847;DHT22;25517;52.422;10.782;2022-11-04T05:28:45;10.30;99.90
39847;DHT22;25517;52.422;10.782;2022-11-04T05:31:11;10.20;99.90
39847;DHT22;25517;52.422;10.782;2022-11-04T05:33:36;10.20;99.90
39847;DHT22;25517;52.422;10.782;2022-11-04T05:36:10;10.20;99.90
39847;DHT22;25517;52.422;10.782;2022-11-04T05:38:35;10.20;99.90
39847;DHT22;25517;52.422;10.782;2022-11-04T05:41:02;10.10;99.90
39847;DHT22;25517;52.422;10.782;2022-11-04T05:43:27;10.00;99.90
39847;DHT22;25517;52.422;10.782;2022-11-04T05:45:53;10.00;99.90
39847;DHT22;25517;52.422;10.782;2022-11-04T05:48:19;9.90;99.90
39847;DHT22;25517;52.422;10.782;2022-11-04T05:50:45;9.90;99.90
39847;DHT22;25517;52.422;10.782;2022-11-04T05:53:10;9.90;99.90
39847;DHT22;25517;52.422;10.782;2022-11-04T05:55:36;9.90;99.90
39847;DHT22;25517;52.422;10.782;2022-11-04T05:58:01;9.80;99.90
39847;DHT22;25517;52.422;10.782;2022-11-04T06:00:27;9.80;99.90
39847;DHT22;25517;52.422;10.782;2022-11-04T06:02:54;9.80;99.90
39847;DHT22;25517;52.422;10.782;2022-11-04T06:05:21;9.80;99.90
39847;DHT22;25517;52.422;10.782;2022-11-04T06:07:47;9.80;99.90
39847;DHT22;25517;52.422;10.782;2022-11-04T06:10:12;9.70;99.90
39847;DHT22;25517;52.422;10.782;2022-11-04T06:12:38;9.70;99.90
39847;DHT22;25517;52.422;10.782;2022-11-04T06:15:04;9.70;99.90
39847;DHT22;25517;52.422;10.782;2022-11-04T06:17:29;9.70;99.90
39847;DHT22;25517;52.422;10.782;2022-11-04T06:19:55;9.60;99.90
39847;DHT22;25517;52.422;10.782;2022-11-04T06:22:20;9.60;99.90
39847;DHT22;25517;52.422;10.782;2022-11-04T06:24:46;9.60;99.90
39847;DHT22;25517;52.422;10.782;2022-11-04T06:27:12;9.50;99.90
39847;DHT22;25517;52.422;10.782;2022-11-04T06:29:38;9.50;99.90
39847;DHT22;25517;52.422;10.782;2022-11-04T06:32:11;9.60;99.90
39847;DHT22;25517;52.422;10.782;2022-11-04T06:34:37;9.50;99.90
39847;DHT22;25517;52.422;10.782;2022-11-04T06:37:02;9.50;99.90
39847;DHT22;25517;52.422;10.782;2022-11-04T06:39:28;9.50;99.90
39847;DHT22;25517;52.422;10.782;2022-11-04T06:41:54;9.40;99.90
39847;DHT22;25517;52.422;10.782;2022-11-04T06:44:19;9.40;99.90
39847;DHT22;25517;52.422;10.782;2022-11-04T06:46:45;9.30;99.90
39847;DHT22;25517;52.422;10.782;2022-11-04T06:49:12;9.40;99.90
39847;DHT22;25517;52.422;10.782;2022-11-04T06:51:38;9.40;99.90
39847;DHT22;25517;52.422;10.782;2022-11-04T06:54:04;9.40;99.90
39847;DHT22;25517;52.422;10.782;2022-11-04T06:56:29;9.30;99.90
39847;DHT22;25517;52.422;10.782;2022-11-04T06:58:55;9.30;99.90
39847;DHT22;25517;52.422;10.782;2022-11-04T07:01:23;9.30;99.90
39847;DHT22;25517;52.422;10.782;2022-11-04T07:03:54;9.30;99.90
39847;DHT22;25517;52.422;10.782;2022-11-04T07:06:20;9.40;99.90
39847;DHT22;25517;52.422;10.782;2022-11-04T07:08:50;9.40;99.90
39847;DHT22;25517;52.422;10.782;2022-11-04T07:11:20;9.40;99.90
39847;DHT22;25517;52.422;10.782;2022-11-04T07:13:47;9.40;99.90
39847;DHT22;25517;52.422;10.782;2022-11-04T07:16:13;9.50;99.90
39847;DHT22;25517;52.422;10.782;2022-11-04T07:18:39;9.50;99.90
39847;DHT22;25517;52.422;10.782;2022-11-04T07:21:05;9.40;99.90
39847;DHT22;25517;52.422;10.782;2022-11-04T07:23:31;9.50;99.90
39847;DHT22;25517;52.422;10.782;2022-11-04T07:26:06;9.60;99.90
39847;DHT22;25517;52.422;10.782;2022-11-04T07:28:32;9.60;99.90
39847;DHT22;25517;52.422;10.782;2022-11-04T07:30:59;9.50;99.90
39847;DHT22;25517;52.422;10.782;2022-11-04T07:33:25;9.60;99.90
39847;DHT22;25517;52.422;10.782;2022-11-04T07:35:51;9.60;99.90
39847;DHT22;25517;52.422;10.782;2022-11-04T07:38:18;9.60;99.90
39847;DHT22;25517;52.422;10.782;2022-11-04T07:40:43;9.40;99.90
39847;DHT22;25517;52.422;10.782;2022-11-04T07:43:09;9.40;99.90
39847;DHT22;25517;52.422;10.782;2022-11-04T07:45:34;9.50;99.90
39847;DHT22;25517;52.422;10.782;2022-11-04T07:48:00;9.50;99.90
39847;DHT22;25517;52.422;10.782;2022-11-04T07:50:25;9.50;99.90
39847;DHT22;25517;52.422;10.782;2022-11-04T07:52:51;9.60;99.90
39847;DHT22;25517;52.422;10.782;2022-11-04T07:55:17;9.60;99.90
39847;DHT22;25517;52.422;10.782;2022-11-04T07:57:44;9.70;99.90
39847;DHT22;25517;52.422;10.782;2022-11-04T08:00:10;9.70;99.90
39847;DHT22;25517;52.422;10.782;2022-11-04T08:02:36;9.70;99.90
39847;DHT22;25517;52.422;10.782;2022-11-04T08:05:02;9.80;99.90
39847;DHT22;25517;52.422;10.782;2022-11-04T08:07:27;9.70;99.90
39847;DHT22;25517;52.422;10.782;2022-11-04T08:09:53;9.70;99.90
39847;DHT22;25517;52.422;10.782;2022-11-04T08:12:20;9.70;99.90
39847;DHT22;25517;52.422;10.782;2022-11-04T08:14:48;9.60;99.90
39847;DHT22;25517;52.422;10.782;2022-11-04T08:17:13;9.70;99.90
39847;DHT22;25517;52.422;10.782;2022-11-04T08:19:39;9.80;99.90
39847;DHT22;25517;52.422;10.782;2022-11-04T08:22:04;9.70;99.90
39847;DHT22;25517;52.422;10.782;2022-11-04T08:24:30;9.80;99.90
39847;DHT22;25517;52.422;10.782;2022-11-04T08:26:55;9.90;99.90
39847;DHT22;25517;52.422;10.782;2022-11-04T08:29:21;10.00;99.90
39847;DHT22;25517;52.422;10.782;2022-11-04T08:31:46;10.20;99.90
39847;DHT22;25517;52.422;10.782;2022-11-04T08:34:12;10.20;99.90
39847;DHT22;25517;52.422;10.782;2022-11-04T08:36:39;10.20;99.90
39847;DHT22;25517;52.422;10.782;2022-11-04T08:39:08;10.20;99.90
39847;DHT22;25517;52.422;10.782;2022-11-04T08:41:34;10.20;99.90
39847;DHT22;25517;52.422;10.782;2022-11-04T08:44:00;10.30;99.90
39847;DHT22;25517;52.422;10.782;2022-11-04T08:46:32;10.40;99.90
39847;DHT22;25517;52.422;10.782;2022-11-04T08:48:57;10.50;99.90
39847;DHT22;25517;52.422;10.782;2022-11-04T08:51:25;10.60;99.90
39847;DHT22;25517;52.422;10.782;2022-11-04T08:53:51;10.60;99.90
39847;DHT22;25517;52.422;10.782;2022-11-04T08:56:27;10.60;99.90
39847;DHT22;25517;52.422;10.782;2022-11-04T08:58:53;10.80;99.90
39847;DHT22;25517;52.422;10.782;2022-11-04T09:01:19;10.80;99.90
39847;DHT22;25517;52.422;10.782;2022-11-04T09:03:45;10.90;99.90
39847;DHT22;25517;52.422;10.782;2022-11-04T09:06:16;10.90;99.90
39847;DHT22;25517;52.422;10.782;2022-11-04T09:08:43;11.00;99.90
39847;DHT22;25517;52.422;10.782;2022-11-04T09:11:11;11.00;99.90
39847;DHT22;25517;52.422;10.782;2022-11-04T09:13:38;11.10;99.90
39847;DHT22;25517;52.422;10.782;2022-11-04T09:16:04;11.20;99.90
39847;DHT22;25517;52.422;10.782;2022-11-04T09:18:30;11.20;99.90
39847;DHT22;25517;52.422;10.782;2022-11-04T09:21:02;11.20;99.90
39847;DHT22;25517;52.422;10.782;2022-11-04T09:23:29;11.20;99.90
39847;DHT22;25517;52.422;10.782;2022-11-04T09:25:55;11.20;99.90
39847;DHT22;25517;52.422;10.782;2022-11-04T09:28:23;11.30;99.90
39847;DHT22;25517;52.422;10.782;2022-11-04T09:30:48;11.30;99.90
39847;DHT22;25517;52.422;10.782;2022-11-04T09:33:15;11.30;99.90
39847;DHT22;25517;52.422;10.782;2022-11-04T09:35:40;11.30;99.90
39847;DHT22;25517;52.422;10.782;2022-11-04T09:38:06;11.30;99.90
39847;DHT22;25517;52.422;10.782;2022-11-04T09:40:33;11.30;99.90
39847;DHT22;25517;52.422;10.782;2022-11-04T09:45:54;11.40;99.90
39847;DHT22;25517;52.422;10.782;2022-11-04T09:51:10;11.40;99.90
39847;DHT22;25517;52.422;10.782;2022-11-04T09:53:41;11.40;99.90
39847;DHT22;25517;52.422;10.782;2022-11-04T09:56:29;11.50;99.90
39847;DHT22;25517;52.422;10.782;2022-11-04T09:58:56;11.60;99.90
39847;DHT22;25517;52.422;10.782;2022-11-04T10:10:15;12.10;99.90
39847;DHT22;25517;52.422;10.782;2022-11-04T10:13:16;12.30;99.90
39847;DHT22;25517;52.422;10.782;2022-11-04T10:16:06;12.70;99.90
39847;DHT22;25517;52.422;10.782;2022-11-04T10:18:58;13.10;99.90
39847;DHT22;25517;52.422;10.782;2022-11-04T10:21:46;13.50;99.90
39847;DHT22;25517;52.422;10.782;2022-11-04T10:27:04;13.90;99.90
39847;DHT22;25517;52.422;10.782;2022-11-04T10:29:55;13.90;99.90
39847;DHT22;25517;52.422;10.782;2022-11-04T10:32:30;14.20;99.90
39847;DHT22;25517;52.422;10.782;2022-11-04T10:35:21;14.50;99.90
39847;DHT22;25517;52.422;10.782;2022-11-04T10:37:51;14.60;99.90
39847;DHT22;25517;52.422;10.782;2022-11-04T10:40:26;14.80;99.90
39847;DHT22;25517;52.422;10.782;2022-11-04T10:42:54;14.40;99.90
39847;DHT22;25517;52.422;10.782;2022-11-04T10:45:30;14.30;99.90
39847;DHT22;25517;52.422;10.782;2022-11-04T10:48:11;14.30;99.90
39847;DHT22;25517;52.422;10.782;2022-11-04T10:50:53;14.10;99.90
39847;DHT22;25517;52.422;10.782;2022-11-04T10:53:23;13.70;99.90
39847;DHT22;25517;52.422;10.782;2022-11-04T10:56:16;13.50;99.90
39847;DHT22;25517;52.422;10.782;2022-11-04T10:58:47;13.30;99.90
39847;DHT22;25517;52.422;10.782;2022-11-04T11:01:23;13.10;99.90
39847;DHT22;25517;52.422;10.782;2022-11-04T11:03:49;13.00;99.90
39847;DHT22;25517;52.422;10.782;2022-11-04T11:06:32;12.80;99.90
39847;DHT22;25517;52.422;10.782;2022-11-04T11:11:38;12.60;99.90
39847;DHT22;25517;52.422;10.782;2022-11-04T11:14:04;12.50;99.90
39847;DHT22;25517;52.422;10.782;2022-11-04T11:16:29;12.40;99.90
39847;DHT22;25517;52.422;10.782;2022-11-04T11:24:15;12.30;99.90
39847;DHT22;25517;52.422;10.782;2022-11-04T11:26:43;12.30;99.90
39847;DHT22;25517;52.422;10.782;2022-11-04T11:29:31;12.50;99.90
39847;DHT22;25517;52.422;10.782;2022-11-04T11:32:05;12.60;99.90
39847;DHT22;25517;52.422;10.782;2022-11-04T11:34:41;12.50;99.90
39847;DHT22;25517;52.422;10.782;2022-11-04T11:37:20;12.40;99.90
39847;DHT22;25517;52.422;10.782;2022-11-04T11:39:46;12.40;99.90
39847;DHT22;25517;52.422;10.782;2022-11-04T11:42:13;12.50;99.90
39847;DHT22;25517;52.422;10.782;2022-11-04T11:44:52;12.50;99.90
39847;DHT22;25517;52.422;10.782;2022-11-04T11:47:32;12.50;99.90
39847;DHT22;25517;52.422;10.782;2022-11-04T11:50:14;12.60;99.90
39847;DHT22;25517;52.422;10.782;2022-11-04T11:52:42;12.60;99.90
39847;DHT22;25517;52.422;10.782;2022-11-04T11:55:24;12.60;99.90
39847;DHT22;25517;52.422;10.782;2022-11-04T11:58:18;12.60;99.90
39847;DHT22;25517;52.422;10.782;2022-11-04T12:00:58;12.50;99.90
39847;DHT22;25517;52.422;10.782;2022-11-04T12:03:31;12.50;99.90
39847;DHT22;25517;52.422;10.782;2022-11-04T12:06:17;12.60;99.90
39847;DHT22;25517;52.422;10.782;2022-11-04T12:11:48;12.80;99.90
39847;DHT22;25517;52.422;10.782;2022-11-04T12:23:32;13.00;99.90
39847;DHT22;25517;52.422;10.782;2022-11-04T12:26:20;13.10;99.90
39847;DHT22;25517;52.422;10.782;2022-11-04T12:29:19;13.00;99.90
39847;DHT22;25517;52.422;10.782;2022-11-04T12:32:11;12.90;99.90
39847;DHT22;25517;52.422;10.782;2022-11-04T12:43:32;12.80;99.90
39847;DHT22;25517;52.422;10.782;2022-11-04T12:46:11;12.80;99.90
39847;DHT22;25517;52.422;10.782;2022-11-04T12:49:08;12.90;99.90
39847;DHT22;25517;52.422;10.782;2022-11-04T12:51:54;12.90;99.90
39847;DHT22;25517;52.422;10.782;2022-11-04T12:54:26;13.00;99.90
39847;DHT22;25517;52.422;10.782;2022-11-04T12:57:16;13.00;99.90
39847;DHT22;25517;52.422;10.782;2022-11-04T13:00:06;13.00;99.90
39847;DHT22;25517;52.422;10.782;2022-11-04T13:05:22;13.00;99.90
39847;DHT22;25517;52.422;10.782;2022-11-04T13:07:55;13.20;99.90
39847;DHT22;25517;52.422;10.782;2022-11-04T13:10:26;13.20;99.90
39847;DHT22;25517;52.422;10.782;2022-11-04T13:12:54;13.30;99.90
39847;DHT22;25517;52.422;10.782;2022-11-04T13:15:26;13.30;99.90
39847;DHT22;25517;52.422;10.782;2022-11-04T13:17:58;13.20;99.90
39847;DHT22;25517;52.422;10.782;2022-11-04T13:20:25;13.30;99.90
39847;DHT22;25517;52.422;10.782;2022-11-04T13:22:52;13.20;99.90
39847;DHT22;25517;52.422;10.782;2022-11-04T13:25:28;13.20;99.90
39847;DHT22;25517;52.422;10.782;2022-11-04T13:27:55;13.20;99.90
39847;DHT22;25517;52.422;10.782;2022-11-04T13:30:32;13.20;99.90
39847;DHT22;25517;52.422;10.782;2022-11-04T13:35:45;13.00;99.90
39847;DHT22;25517;52.422;10.782;2022-11-04T13:38:17;12.90;99.90
39847;DHT22;25517;52.422;10.782;2022-11-04T13:40:59;12.80;99.90
39847;DHT22;25517;52.422;10.782;2022-11-04T13:43:33;12.80;99.90
39847;DHT22;25517;52.422;10.782;2022-11-04T13:48:49;12.70;99.90
39847;DHT22;25517;52.422;10.782;2022-11-04T13:51:16;12.70;99.90
39847;DHT22;25517;52.422;10.782;2022-11-04T13:53:46;12.70;99.90
39847;DHT22;25517;52.422;10.782;2022-11-04T13:59:19;12.50;99.90
39847;DHT22;25517;52.422;10.782;2022-11-04T14:01:46;12.50;99.90
39847;DHT22;25517;52.422;10.782;2022-11-04T14:09:33;12.40;99.90
39847;DHT22;25517;52.422;10.782;2022-11-04T14:14:49;12.40;99.90
39847;DHT22;25517;52.422;10.782;2022-11-04T14:27:45;12.20;99.90
39847;DHT22;25517;52.422;10.782;2022-11-04T14:30:36;12.10;99.90
39847;DHT22;25517;52.422;10.782;2022-11-04T14:33:05;12.10;99.90
39847;DHT22;25517;52.422;10.782;2022-11-04T14:35:31;12.10;99.90
39847;DHT22;25517;52.422;10.782;2022-11-04T14:38:05;12.10;99.90
39847;DHT22;25517;52.422;10.782;2022-11-04T14:40:50;12.10;99.90
39847;DHT22;25517;52.422;10.782;2022-11-04T14:43:28;12.10;99.90
39847;DHT22;25517;52.422;10.782;2022-11-04T14:45:54;12.10;99.90
39847;DHT22;25517;52.422;10.782;2022-11-04T14:48:21;12.00;99.90
39847;DHT22;25517;52.422;10.782;2022-11-04T14:50:51;12.00;99.90
39847;DHT22;25517;52.422;10.782;2022-11-04T14:53:40;12.00;99.90
39847;DHT22;25517;52.422;10.782;2022-11-04T14:56:23;11.90;99.90
39847;DHT22;25517;52.422;10.782;2022-11-04T15:01:20;11.80;99.90
39847;DHT22;25517;52.422;10.782;2022-11-04T15:03:47;11.70;99.90
39847;DHT22;25517;52.422;10.782;2022-11-04T15:06:22;11.70;99.90
39847;DHT22;25517;52.422;10.782;2022-11-04T15:08:48;11.80;99.90
39847;DHT22;25517;52.422;10.782;2022-11-04T15:11:17;11.70;99.90
39847;DHT22;25517;52.422;10.782;2022-11-04T15:13:47;11.60;99.90
39847;DHT22;25517;52.422;10.782;2022-11-04T15:16:21;11.60;99.90
39847;DHT22;25517;52.422;10.782;2022-11-04T15:18:49;11.50;99.90
39847;DHT22;25517;52.422;10.782;2022-11-04T15:21:15;11.50;99.90
39847;DHT22;25517;52.422;10.782;2022-11-04T15:23:45;11.50;99.90
39847;DHT22;25517;52.422;10.782;2022-11-04T15:26:27;11.40;99.90
39847;DHT22;25517;52.422;10.782;2022-11-04T15:28:54;11.40;99.90
39847;DHT22;25517;52.422;10.782;2022-11-04T15:31:25;11.30;99.90
39847;DHT22;25517;52.422;10.782;2022-11-04T15:33:53;11.30;99.90
39847;DHT22;25517;52.422;10.782;2022-11-04T15:36:26;11.30;99.90
39847;DHT22;25517;52.422;10.782;2022-11-04T15:39:02;11.20;99.90
39847;DHT22;25517;52.422;10.782;2022-11-04T15:41:30;11.20;99.90
39847;DHT22;25517;52.422;10.782;2022-11-04T15:46:53;11.10;99.90
39847;DHT22;25517;52.422;10.782;2022-11-04T15:49:25;11.10;99.90
39847;DHT22;25517;52.422;10.782;2022-11-04T15:51:53;11.00;99.90
39847;DHT22;25517;52.422;10.782;2022-11-04T15:54:22;11.00;99.90
39847;DHT22;25517;52.422;10.782;2022-11-04T15:56:53;10.90;99.90
39847;DHT22;25517;52.422;10.782;2022-11-04T15:59:22;10.90;99.90
39847;DHT22;25517;52.422;10.782;2022-11-04T16:01:51;10.90;99.90
39847;DHT22;25517;52.422;10.782;2022-11-04T16:04:20;10.80;99.90
39847;DHT22;25517;52.422;10.782;2022-11-04T16:07:20;10.80;99.90
39847;DHT22;25517;52.422;10.782;2022-11-04T16:09:51;10.80;99.90
39847;DHT22;25517;52.422;10.782;2022-11-04T16:12:27;10.80;99.90
39847;DHT22;25517;52.422;10.782;2022-11-04T16:14:57;10.70;99.90
39847;DHT22;25517;52.422;10.782;2022-11-04T16:17:23;10.70;99.90
39847;DHT22;25517;52.422;10.782;2022-11-04T16:19:52;10.70;99.90
39847;DHT22;25517;52.422;10.782;2022-11-04T16:22:23;10.60;99.90
39847;DHT22;25517;52.422;10.782;2022-11-04T16:24:52;10.60;99.90
39847;DHT22;25517;52.422;10.782;2022-11-04T16:27:20;10.60;99.90
39847;DHT22;25517;52.422;10.782;2022-11-04T16:32:42;10.50;99.90
39847;DHT22;25517;52.422;10.782;2022-11-04T16:35:17;10.40;99.90
39847;DHT22;25517;52.422;10.782;2022-11-04T16:37:43;10.40;99.90
39847;DHT22;25517;52.422;10.782;2022-11-04T16:40:09;10.40;99.90
39847;DHT22;25517;52.422;10.782;2022-11-04T16:42:34;10.40;99.90
39847;DHT22;25517;52.422;10.782;2022-11-04T16:45:02;10.40;99.90
39847;DHT22;25517;52.422;10.782;2022-11-04T16:47:28;10.40;99.90
39847;DHT22;25517;52.422;10.782;2022-11-04T16:49:58;10.40;99.90
39847;DHT22;25517;52.422;10.782;2022-11-04T16:52:24;10.40;99.90
39847;DHT22;25517;52.422;10.782;2022-11-04T16:54:50;10.40;99.90
39847;DHT22;25517;52.422;10.782;2022-11-04T16:57:15;10.40;99.90
39847;DHT22;25517;52.422;10.782;2022-11-04T16:59:42;10.40;99.90
39847;DHT22;25517;52.422;10.782;2022-11-04T17:02:27;10.50;99.90
39847;DHT22;25517;52.422;10.782;2022-11-04T17:04:55;10.40;99.90
39847;DHT22;25517;52.422;10.782;2022-11-04T17:07:20;10.50;99.90
39847;DHT22;25517;52.422;10.782;2022-11-04T17:09:46;10.50;99.90
39847;DHT22;25517;52.422;10.782;2022-11-04T17:12:11;10.50;99.90
39847;DHT22;25517;52.422;10.782;2022-11-04T17:14:37;10.50;99.90
39847;DHT22;25517;52.422;10.782;2022-11-04T17:17:03;10.50;99.90
39847;DHT22;25517;52.422;10.782;2022-11-04T17:19:29;10.50;99.90
39847;DHT22;25517;52.422;10.782;2022-11-04T17:21:55;10.50;99.90
39847;DHT22;25517;52.422;10.782;2022-11-04T17:24:23;10.60;99.90
39847;DHT22;25517;52.422;10.782;2022-11-04T17:26:48;10.60;99.90
39847;DHT22;25517;52.422;10.782;2022-11-04T17:29:14;10.60;99.90
39847;DHT22;25517;52.422;10.782;2022-11-04T17:31:39;10.60;99.90
39847;DHT22;25517;52.422;10.782;2022-11-04T17:34:05;10.60;99.90
39847;DHT22;25517;52.422;10.782;2022-11-04T17:36:30;10.60;99.90
39847;DHT22;25517;52.422;10.782;2022-11-04T17:38:56;10.60;99.90
39847;DHT22;25517;52.422;10.782;2022-11-04T17:41:21;10.60;99.90